Lucerne Valley, CA (92356)

3:50 PM PST on February 21, 2017 (GMT -0800)
MF0119 | | Change Station
Active Advisory: Wind Advisory

Elev 3034 ft 34.44 °N, 116.98 °W | Updated 16 minutes ago

Mostly Cloudy
Mostly Cloudy
65.0 °F
Feels Like 65.0 °F
N
18.0
Wind Variable Wind from SW
Gusts 26.0 mph

Today
High -- | Low -- °F
--% Chance of Precip.
Yesterday
High -- | Low -- °F
Precip. -- in
Pressure 30.21 in
Visibility 10.0 miles
Clouds Scattered Clouds 11000 ft
Dew Point 37 °F
Humidity 36%
Rainfall 0.01 in
Snow Depth Not available.
6:26 AM 5:37 PM
Waning Crescent, 22% visible
METAR KVCV 212335Z AUTO 21011KT 10SM SCT110 16/03 A3021 RMK AO2
Pressure 30.21 in
Visibility 10.0 miles
Clouds Scattered Clouds 11000 ft
Dew Point 37 °F
Humidity 36%
Rainfall 0.01 in
Snow Depth Not available.
6:26 AM 5:37 PM
Waning Crescent, 22% visible
METAR KVCV 212335Z AUTO 21011KT 10SM SCT110 16/03 A3021 RMK AO2

Get Your Daily Forecast Email!

Thanks for signing up!

Be on the lookout for a verification email in your inbox.

You'll start receiving the daily forecast at 8 AM.

×

10-Day Weather Forecast

Almanac

Astronomy

Feb. 21, 2017 Rise Set
Actual Time
Civil Twilight
Nautical Twilight
Astronomical Twilight
Moon
Length of Visible Light
Length of Day
Tomorrow will be .
, % of the Moon is Illuminated

Today's Extremes

State Highs State Lows

Community

WunderPhotos

Upload Photos

1,962,540 photos uploaded!

WunderBlog® & News

Nearby

Air Quality

  Air Quality AQ Index Pollutant
Not available.

Snow Depth

Station Depth Elevation

Earthquake Activity

City Distance Mag. Time & Date
Minimum magnitude displayed is 2.5.

Coastal Water Temperatures

Place Temperature

Stations

Nearby Weather Stations

Station Location Temp. Windchill Dew Point Humidity Wind Precip. Elev Updated Type
                   

Watches & Warnings

Wind Advisory
Issued: 1:44 PM PST Feb. 21, 2017 – National Weather Service

... Wind Advisory in effect from 1 PM Wednesday to 1 am PST
Thursday...

The National Weather Service in San Diego has issued a Wind
Advisory... which is in effect from 1 PM Wednesday to 1 am PST
Thursday.

* Winds... westerly 25 to 35 mph... with gusts to 45 mph in the
deserts and 55 mph along Desert Mountain slopes.

* Timing... Wednesday afternoon through Wednesday night.

* Location... Desert Mountain slopes and adjacent deserts.

* Visibility... locally reduced to 1 mile or less in blowing dust
and sand.

* Impacts... hazardous driving for motorists in high profile
vehicles.

Precautionary/preparedness actions...

A Wind Advisory means that winds of 35 mph are expected. Winds
this strong can make driving difficult... especially for high
profile vehicles. Use extra caution.



Jjt